sensor_id;sensor_type;location;lat;lon;timestamp;pressure;altitude;pressure_sealevel;temperature;humidity
16544;BME280;8384;47.996;7.786;2023-04-19T00:00:26;99172.75;;;8.65;77.17
16544;BME280;8384;47.996;7.786;2023-04-19T00:02:52;99127.50;;;8.28;77.38
16544;BME280;8384;47.996;7.786;2023-04-19T00:05:18;99166.91;;;8.37;78.63
16544;BME280;8384;47.996;7.786;2023-04-19T00:07:44;99166.91;;;8.37;79.23
16544;BME280;8384;47.996;7.786;2023-04-19T00:10:11;99137.41;;;8.10;79.20
16544;BME280;8384;47.996;7.786;2023-04-19T00:12:36;99160.38;;;8.26;79.83
16544;BME280;8384;47.996;7.786;2023-04-19T00:15:01;99170.22;;;8.16;80.43
16544;BME280;8384;47.996;7.786;2023-04-19T00:17:26;99163.09;;;8.26;79.93
16544;BME280;8384;47.996;7.786;2023-04-19T00:19:52;99160.03;;;8.35;79.78
16544;BME280;8384;47.996;7.786;2023-04-19T00:22:17;99152.81;;;8.29;79.14
16544;BME280;8384;47.996;7.786;2023-04-19T00:24:42;99144.50;;;8.23;79.91
16544;BME280;8384;47.996;7.786;2023-04-19T00:27:08;99166.69;;;8.39;79.80
16544;BME280;8384;47.996;7.786;2023-04-19T00:29:33;99163.69;;;8.17;80.85
16544;BME280;8384;47.996;7.786;2023-04-19T00:31:58;99149.13;;;8.11;81.34
16544;BME280;8384;47.996;7.786;2023-04-19T00:34:23;99158.97;;;8.24;80.76
16544;BME280;8384;47.996;7.786;2023-04-19T00:36:49;99166.69;;;8.27;80.96
16544;BME280;8384;47.996;7.786;2023-04-19T00:39:14;99164.56;;;8.29;81.20
16544;BME280;8384;47.996;7.786;2023-04-19T00:41:39;99158.63;;;8.20;81.48
16544;BME280;8384;47.996;7.786;2023-04-19T00:44:04;99162.28;;;8.26;81.52
16544;BME280;8384;47.996;7.786;2023-04-19T00:46:30;99157.66;;;8.38;81.12
16544;BME280;8384;47.996;7.786;2023-04-19T00:48:55;99154.81;;;8.21;81.56
16544;BME280;8384;47.996;7.786;2023-04-19T00:51:21;99140.72;;;8.24;82.04
16544;BME280;8384;47.996;7.786;2023-04-19T00:53:46;99143.44;;;8.24;82.03
16544;BME280;8384;47.996;7.786;2023-04-19T00:56:12;99149.88;;;8.18;82.76
16544;BME280;8384;47.996;7.786;2023-04-19T00:58:38;99143.31;;;7.95;83.39
16544;BME280;8384;47.996;7.786;2023-04-19T01:01:04;99103.66;;;7.88;82.57
16544;BME280;8384;47.996;7.786;2023-04-19T01:03:30;99100.22;;;7.80;83.42
16544;BME280;8384;47.996;7.786;2023-04-19T01:05:55;99139.44;;;8.15;82.21
16544;BME280;8384;47.996;7.786;2023-04-19T01:08:21;99104.13;;;7.85;82.70
16544;BME280;8384;47.996;7.786;2023-04-19T01:10:47;99133.16;;;8.26;81.04
16544;BME280;8384;47.996;7.786;2023-04-19T01:13:12;99132.81;;;8.11;81.80
16544;BME280;8384;47.996;7.786;2023-04-19T01:15:37;99123.31;;;7.90;83.33
16544;BME280;8384;47.996;7.786;2023-04-19T01:18:03;99103.44;;;8.01;82.11
16544;BME280;8384;47.996;7.786;2023-04-19T01:20:28;99131.97;;;8.22;81.51
16544;BME280;8384;47.996;7.786;2023-04-19T01:22:53;99122.03;;;8.04;81.93
16544;BME280;8384;47.996;7.786;2023-04-19T01:25:19;99128.41;;;8.10;82.15
16544;BME280;8384;47.996;7.786;2023-04-19T01:27:44;99109.09;;;7.88;82.88
16544;BME280;8384;47.996;7.786;2023-04-19T01:30:10;99117.28;;;8.00;82.75
16544;BME280;8384;47.996;7.786;2023-04-19T01:32:36;99118.59;;;8.09;82.26
16544;BME280;8384;47.996;7.786;2023-04-19T01:35:01;99113.41;;;8.07;81.88
16544;BME280;8384;47.996;7.786;2023-04-19T01:37:26;99111.84;;;8.35;80.79
16544;BME280;8384;47.996;7.786;2023-04-19T01:39:51;99107.69;;;8.21;81.68
16544;BME280;8384;47.996;7.786;2023-04-19T01:42:17;99107.56;;;8.39;80.03
16544;BME280;8384;47.996;7.786;2023-04-19T01:44:42;99107.09;;;8.31;80.52
16544;BME280;8384;47.996;7.786;2023-04-19T01:47:07;99110.78;;;8.24;80.53
16544;BME280;8384;47.996;7.786;2023-04-19T01:49:32;99071.59;;;8.14;80.16
16544;BME280;8384;47.996;7.786;2023-04-19T01:51:58;99102.59;;;8.24;80.13
16544;BME280;8384;47.996;7.786;2023-04-19T01:54:23;99088.41;;;8.10;80.62
16544;BME280;8384;47.996;7.786;2023-04-19T01:56:48;99088.97;;;8.01;81.64
16544;BME280;8384;47.996;7.786;2023-04-19T01:59:14;99098.13;;;8.30;80.54
16544;BME280;8384;47.996;7.786;2023-04-19T02:01:39;99074.19;;;8.08;80.71
16544;BME280;8384;47.996;7.786;2023-04-19T02:04:05;99095.88;;;8.03;81.01
16544;BME280;8384;47.996;7.786;2023-04-19T02:06:31;99085.38;;;7.53;83.72
16544;BME280;8384;47.996;7.786;2023-04-19T02:08:56;99086.47;;;7.63;82.92
16544;BME280;8384;47.996;7.786;2023-04-19T02:11:22;99076.28;;;7.59;82.91
16544;BME280;8384;47.996;7.786;2023-04-19T02:13:47;99104.22;;;7.66;82.39
16544;BME280;8384;47.996;7.786;2023-04-19T02:16:12;99089.53;;;6.94;85.87
16544;BME280;8384;47.996;7.786;2023-04-19T02:18:38;99062.16;;;6.96;86.44
16544;BME280;8384;47.996;7.786;2023-04-19T02:21:04;99106.69;;;6.95;86.97
16544;BME280;8384;47.996;7.786;2023-04-19T02:23:30;99099.88;;;6.85;87.59
16544;BME280;8384;47.996;7.786;2023-04-19T02:25:55;99098.53;;;6.76;88.26
16544;BME280;8384;47.996;7.786;2023-04-19T02:28:20;99097.47;;;6.77;88.63
16544;BME280;8384;47.996;7.786;2023-04-19T02:30:46;99076.75;;;6.45;88.90
16544;BME280;8384;47.996;7.786;2023-04-19T02:33:11;99095.22;;;6.37;89.31
16544;BME280;8384;47.996;7.786;2023-04-19T02:35:37;99099.50;;;6.07;91.59
16544;BME280;8384;47.996;7.786;2023-04-19T02:38:03;99100.84;;;5.91;93.58
16544;BME280;8384;47.996;7.786;2023-04-19T02:40:29;99098.69;;;5.75;92.80
16544;BME280;8384;47.996;7.786;2023-04-19T02:42:54;99103.81;;;5.58;93.72
16544;BME280;8384;47.996;7.786;2023-04-19T02:45:19;99079.38;;;5.32;95.49
16544;BME280;8384;47.996;7.786;2023-04-19T02:47:45;99103.28;;;5.74;94.82
16544;BME280;8384;47.996;7.786;2023-04-19T02:50:11;99102.69;;;5.40;96.18
16544;BME280;8384;47.996;7.786;2023-04-19T02:52:36;99100.22;;;5.38;97.72
16544;BME280;8384;47.996;7.786;2023-04-19T02:55:02;99103.91;;;5.44;98.19
16544;BME280;8384;47.996;7.786;2023-04-19T02:57:28;99090.63;;;5.36;99.16
16544;BME280;8384;47.996;7.786;2023-04-19T02:59:54;99094.53;;;5.72;97.53
16544;BME280;8384;47.996;7.786;2023-04-19T03:02:19;99095.09;;;5.55;98.17
16544;BME280;8384;47.996;7.786;2023-04-19T03:04:44;99096.16;;;5.48;98.97
16544;BME280;8384;47.996;7.786;2023-04-19T03:07:11;99040.13;;;5.09;100.00
16544;BME280;8384;47.996;7.786;2023-04-19T03:09:37;99065.59;;;5.40;99.83
16544;BME280;8384;47.996;7.786;2023-04-19T03:12:02;99105.81;;;5.69;98.95
16544;BME280;8384;47.996;7.786;2023-04-19T03:14:27;99099.38;;;5.38;100.00
16544;BME280;8384;47.996;7.786;2023-04-19T03:16:53;99082.75;;;5.28;100.00
16544;BME280;8384;47.996;7.786;2023-04-19T03:19:18;99090.38;;;5.05;100.00
16544;BME280;8384;47.996;7.786;2023-04-19T03:21:43;99050.56;;;4.74;100.00
16544;BME280;8384;47.996;7.786;2023-04-19T03:24:09;99086.44;;;5.01;100.00
16544;BME280;8384;47.996;7.786;2023-04-19T03:26:34;99091.06;;;4.94;100.00
16544;BME280;8384;47.996;7.786;2023-04-19T03:28:59;99089.00;;;4.89;100.00
16544;BME280;8384;47.996;7.786;2023-04-19T03:31:25;99082.94;;;4.94;100.00
16544;BME280;8384;47.996;7.786;2023-04-19T03:33:50;99092.19;;;5.18;100.00
16544;BME280;8384;47.996;7.786;2023-04-19T03:36:16;99086.97;;;5.49;100.00
16544;BME280;8384;47.996;7.786;2023-04-19T03:38:41;99083.22;;;5.50;100.00
16544;BME280;8384;47.996;7.786;2023-04-19T03:41:19;99092.75;;;5.59;100.00
16544;BME280;8384;47.996;7.786;2023-04-19T03:43:44;99094.69;;;5.52;99.78
16544;BME280;8384;47.996;7.786;2023-04-19T03:46:10;99092.06;;;5.06;100.00
16544;BME280;8384;47.996;7.786;2023-04-19T03:48:35;99088.94;;;5.03;100.00
16544;BME280;8384;47.996;7.786;2023-04-19T03:51:00;99067.28;;;5.03;100.00
16544;BME280;8384;47.996;7.786;2023-04-19T03:53:26;99079.78;;;4.97;100.00
16544;BME280;8384;47.996;7.786;2023-04-19T03:55:51;99084.75;;;5.07;100.00
16544;BME280;8384;47.996;7.786;2023-04-19T03:58:16;99080.31;;;5.19;99.18
16544;BME280;8384;47.996;7.786;2023-04-19T04:00:42;99086.09;;;4.84;100.00
16544;BME280;8384;47.996;7.786;2023-04-19T04:03:07;99066.50;;;4.37;100.00
16544;BME280;8384;47.996;7.786;2023-04-19T04:05:33;99073.75;;;4.49;100.00
16544;BME280;8384;47.996;7.786;2023-04-19T04:07:59;99090.50;;;4.78;100.00
16544;BME280;8384;47.996;7.786;2023-04-19T04:10:24;99090.28;;;4.80;100.00
16544;BME280;8384;47.996;7.786;2023-04-19T04:12:49;99071.38;;;4.73;100.00
16544;BME280;8384;47.996;7.786;2023-04-19T04:15:14;99089.72;;;4.64;100.00
16544;BME280;8384;47.996;7.786;2023-04-19T04:17:40;99071.94;;;4.30;100.00
16544;BME280;8384;47.996;7.786;2023-04-19T04:20:06;99039.88;;;4.33;100.00
16544;BME280;8384;47.996;7.786;2023-04-19T04:22:32;99094.91;;;4.73;100.00
16544;BME280;8384;47.996;7.786;2023-04-19T04:24:57;99098.84;;;4.84;100.00
16544;BME280;8384;47.996;7.786;2023-04-19T04:27:26;99099.03;;;4.89;100.00
16544;BME280;8384;47.996;7.786;2023-04-19T04:29:51;99109.41;;;4.99;100.00
16544;BME280;8384;47.996;7.786;2023-04-19T04:32:16;99099.78;;;5.03;100.00
16544;BME280;8384;47.996;7.786;2023-04-19T04:34:47;99113.56;;;4.94;100.00
16544;BME280;8384;47.996;7.786;2023-04-19T04:37:12;99109.41;;;4.92;100.00
16544;BME280;8384;47.996;7.786;2023-04-19T04:39:37;99104.44;;;4.89;100.00
16544;BME280;8384;47.996;7.786;2023-04-19T04:42:04;99098.19;;;4.88;100.00
16544;BME280;8384;47.996;7.786;2023-04-19T04:44:33;99105.28;;;4.83;100.00
16544;BME280;8384;47.996;7.786;2023-04-19T04:46:58;99109.19;;;4.93;100.00
16544;BME280;8384;47.996;7.786;2023-04-19T04:49:24;99081.13;;;4.81;100.00
16544;BME280;8384;47.996;7.786;2023-04-19T04:51:49;99112.69;;;5.07;100.00
16544;BME280;8384;47.996;7.786;2023-04-19T04:54:14;99103.50;;;5.08;100.00
16544;BME280;8384;47.996;7.786;2023-04-19T04:56:39;99109.69;;;5.22;100.00
16544;BME280;8384;47.996;7.786;2023-04-19T04:59:05;99105.50;;;4.81;100.00
16544;BME280;8384;47.996;7.786;2023-04-19T05:01:31;99115.28;;;4.89;100.00
16544;BME280;8384;47.996;7.786;2023-04-19T05:03:57;99096.72;;;4.92;100.00
16544;BME280;8384;47.996;7.786;2023-04-19T05:06:22;99120.09;;;5.25;100.00
16544;BME280;8384;47.996;7.786;2023-04-19T05:08:47;99120.88;;;5.65;100.00
16544;BME280;8384;47.996;7.786;2023-04-19T05:11:13;99107.56;;;5.56;100.00
16544;BME280;8384;47.996;7.786;2023-04-19T05:13:38;99117.38;;;5.58;100.00
16544;BME280;8384;47.996;7.786;2023-04-19T05:16:03;99120.50;;;5.86;100.00
16544;BME280;8384;47.996;7.786;2023-04-19T05:18:29;99104.66;;;5.58;100.00
16544;BME280;8384;47.996;7.786;2023-04-19T05:20:55;99111.38;;;5.49;100.00
16544;BME280;8384;47.996;7.786;2023-04-19T05:23:21;99096.25;;;5.34;100.00
16544;BME280;8384;47.996;7.786;2023-04-19T05:25:46;99112.88;;;5.45;100.00
16544;BME280;8384;47.996;7.786;2023-04-19T05:28:11;99091.41;;;5.43;100.00
16544;BME280;8384;47.996;7.786;2023-04-19T05:30:37;99113.53;;;5.72;100.00
16544;BME280;8384;47.996;7.786;2023-04-19T05:33:03;99121.53;;;5.85;100.00
16544;BME280;8384;47.996;7.786;2023-04-19T05:35:28;99136.06;;;5.98;100.00
16544;BME280;8384;47.996;7.786;2023-04-19T05:37:53;99124.97;;;6.06;100.00
16544;BME280;8384;47.996;7.786;2023-04-19T05:40:18;99124.63;;;6.21;100.00
16544;BME280;8384;47.996;7.786;2023-04-19T05:42:44;99127.19;;;6.35;100.00
16544;BME280;8384;47.996;7.786;2023-04-19T05:45:09;99132.03;;;6.33;99.73
16544;BME280;8384;47.996;7.786;2023-04-19T05:47:35;99114.84;;;6.39;99.93
16544;BME280;8384;47.996;7.786;2023-04-19T05:50:01;99106.09;;;6.55;98.96
16544;BME280;8384;47.996;7.786;2023-04-19T05:52:26;99127.00;;;6.73;98.17
16544;BME280;8384;47.996;7.786;2023-04-19T05:54:51;99122.09;;;6.82;98.32
16544;BME280;8384;47.996;7.786;2023-04-19T05:57:16;99114.53;;;6.84;98.04
16544;BME280;8384;47.996;7.786;2023-04-19T05:59:42;99127.72;;;6.99;96.88
16544;BME280;8384;47.996;7.786;2023-04-19T06:02:07;99130.69;;;6.98;97.00
16544;BME280;8384;47.996;7.786;2023-04-19T06:04:33;99129.44;;;7.12;96.42
16544;BME280;8384;47.996;7.786;2023-04-19T06:06:58;99124.91;;;7.06;97.14
16544;BME280;8384;47.996;7.786;2023-04-19T06:09:23;99127.28;;;7.02;96.81
16544;BME280;8384;47.996;7.786;2023-04-19T06:11:49;99129.16;;;7.20;96.75
16544;BME280;8384;47.996;7.786;2023-04-19T06:14:14;99130.25;;;7.31;95.97
16544;BME280;8384;47.996;7.786;2023-04-19T06:16:40;99129.78;;;7.34;96.21
16544;BME280;8384;47.996;7.786;2023-04-19T06:19:06;99127.22;;;7.40;96.47
16544;BME280;8384;47.996;7.786;2023-04-19T06:21:32;99134.06;;;7.42;95.92
16544;BME280;8384;47.996;7.786;2023-04-19T06:23:57;99133.94;;;7.68;95.70
16544;BME280;8384;47.996;7.786;2023-04-19T06:26:23;99144.00;;;7.79;93.89
16544;BME280;8384;47.996;7.786;2023-04-19T06:28:48;99143.31;;;7.95;92.47
16544;BME280;8384;47.996;7.786;2023-04-19T06:31:13;99121.91;;;7.99;91.24
16544;BME280;8384;47.996;7.786;2023-04-19T06:33:38;99140.34;;;7.97;91.94
16544;BME280;8384;47.996;7.786;2023-04-19T06:36:04;99139.66;;;8.14;93.08
16544;BME280;8384;47.996;7.786;2023-04-19T06:38:29;99143.44;;;8.36;90.87
16544;BME280;8384;47.996;7.786;2023-04-19T06:40:55;99106.84;;;8.08;91.62
16544;BME280;8384;47.996;7.786;2023-04-19T06:43:20;99145.00;;;8.32;91.63
16544;BME280;8384;47.996;7.786;2023-04-19T06:45:46;99145.34;;;8.24;92.83
16544;BME280;8384;47.996;7.786;2023-04-19T06:48:11;99125.94;;;8.20;93.21
16544;BME280;8384;47.996;7.786;2023-04-19T06:50:36;99146.69;;;8.57;90.90
16544;BME280;8384;47.996;7.786;2023-04-19T06:53:02;99145.03;;;8.56;91.01
16544;BME280;8384;47.996;7.786;2023-04-19T06:55:27;99141.56;;;8.73;89.67
16544;BME280;8384;47.996;7.786;2023-04-19T06:57:52;99145.97;;;8.62;91.63
16544;BME280;8384;47.996;7.786;2023-04-19T07:00:18;99118.84;;;8.67;89.68
16544;BME280;8384;47.996;7.786;2023-04-19T07:02:43;99134.72;;;8.70;91.71
16544;BME280;8384;47.996;7.786;2023-04-19T07:05:08;99134.22;;;8.85;90.69
16544;BME280;8384;47.996;7.786;2023-04-19T07:07:33;99138.03;;;8.72;92.04
16544;BME280;8384;47.996;7.786;2023-04-19T07:10:02;99135.03;;;8.85;91.81
16544;BME280;8384;47.996;7.786;2023-04-19T07:12:27;99137.66;;;9.21;88.99
16544;BME280;8384;47.996;7.786;2023-04-19T07:14:52;99112.59;;;8.95;90.51
16544;BME280;8384;47.996;7.786;2023-04-19T07:17:21;99110.47;;;8.97;90.59
16544;BME280;8384;47.996;7.786;2023-04-19T07:19:47;99096.69;;;9.04;89.98
16544;BME280;8384;47.996;7.786;2023-04-19T07:22:13;99122.66;;;9.36;89.40
16544;BME280;8384;47.996;7.786;2023-04-19T07:24:38;99137.91;;;9.49;88.72
16544;BME280;8384;47.996;7.786;2023-04-19T07:27:06;99119.47;;;9.56;87.29
16544;BME280;8384;47.996;7.786;2023-04-19T07:29:33;99103.63;;;9.41;86.68
16544;BME280;8384;47.996;7.786;2023-04-19T07:31:59;99132.09;;;9.45;87.83
16544;BME280;8384;47.996;7.786;2023-04-19T07:34:26;99100.59;;;9.37;87.90
16544;BME280;8384;47.996;7.786;2023-04-19T07:36:51;99128.00;;;9.59;87.89
16544;BME280;8384;47.996;7.786;2023-04-19T07:39:16;99123.72;;;9.64;88.97
16544;BME280;8384;47.996;7.786;2023-04-19T07:41:43;99121.91;;;9.69;88.89
16544;BME280;8384;47.996;7.786;2023-04-19T07:44:08;99122.66;;;9.65;88.81
16544;BME280;8384;47.996;7.786;2023-04-19T07:46:35;99128.13;;;9.99;86.40
16544;BME280;8384;47.996;7.786;2023-04-19T07:49:00;99126.94;;;10.12;85.50
16544;BME280;8384;47.996;7.786;2023-04-19T07:51:26;99134.50;;;10.39;83.21
16544;BME280;8384;47.996;7.786;2023-04-19T07:53:51;99135.38;;;10.61;82.17
16544;BME280;8384;47.996;7.786;2023-04-19T07:56:17;99111.59;;;10.62;80.84
16544;BME280;8384;47.996;7.786;2023-04-19T07:58:43;99136.34;;;10.94;79.67
16544;BME280;8384;47.996;7.786;2023-04-19T08:01:09;99116.38;;;10.72;78.74
16544;BME280;8384;47.996;7.786;2023-04-19T08:03:34;99060.28;;;10.30;80.28
16544;BME280;8384;47.996;7.786;2023-04-19T08:06:01;99135.19;;;10.68;81.06
16544;BME280;8384;47.996;7.786;2023-04-19T08:08:26;99124.19;;;10.63;80.85
16544;BME280;8384;47.996;7.786;2023-04-19T08:10:52;99123.88;;;10.59;83.25
16544;BME280;8384;47.996;7.786;2023-04-19T08:13:19;99127.22;;;10.44;82.97
16544;BME280;8384;47.996;7.786;2023-04-19T08:15:44;99064.00;;;9.84;83.94
16544;BME280;8384;47.996;7.786;2023-04-19T08:18:10;99124.63;;;10.20;84.67
16544;BME280;8384;47.996;7.786;2023-04-19T08:20:35;99045.38;;;9.81;84.99
16544;BME280;8384;47.996;7.786;2023-04-19T08:23:02;99127.94;;;10.57;84.86
16544;BME280;8384;47.996;7.786;2023-04-19T08:25:30;99056.34;;;10.20;83.56
16544;BME280;8384;47.996;7.786;2023-04-19T08:27:55;99116.69;;;10.75;83.04
16544;BME280;8384;47.996;7.786;2023-04-19T08:30:21;99088.50;;;10.53;82.83
16544;BME280;8384;47.996;7.786;2023-04-19T08:32:46;99126.97;;;10.85;81.57
16544;BME280;8384;47.996;7.786;2023-04-19T08:35:13;99044.41;;;10.44;80.08
16544;BME280;8384;47.996;7.786;2023-04-19T08:37:38;99120.56;;;10.79;80.78
16544;BME280;8384;47.996;7.786;2023-04-19T08:40:04;99090.63;;;10.45;82.63
16544;BME280;8384;47.996;7.786;2023-04-19T08:42:30;99025.56;;;10.08;83.26
16544;BME280;8384;47.996;7.786;2023-04-19T08:44:56;99065.34;;;10.38;81.66
16544;BME280;8384;47.996;7.786;2023-04-19T08:47:24;99118.31;;;10.71;82.15
16544;BME280;8384;47.996;7.786;2023-04-19T08:49:50;99071.47;;;10.45;83.64
16544;BME280;8384;47.996;7.786;2023-04-19T08:52:16;99124.22;;;10.85;84.40
16544;BME280;8384;47.996;7.786;2023-04-19T08:54:43;99055.47;;;10.54;83.87
16544;BME280;8384;47.996;7.786;2023-04-19T08:57:08;99121.59;;;10.95;83.55
16544;BME280;8384;47.996;7.786;2023-04-19T08:59:34;99061.50;;;10.78;82.78
16544;BME280;8384;47.996;7.786;2023-04-19T09:02:00;99082.88;;;10.82;82.76
16544;BME280;8384;47.996;7.786;2023-04-19T09:04:25;99065.13;;;10.62;83.84
16544;BME280;8384;47.996;7.786;2023-04-19T09:06:50;99112.81;;;10.93;84.43
16544;BME280;8384;47.996;7.786;2023-04-19T09:09:18;99108.88;;;11.06;83.60
16544;BME280;8384;47.996;7.786;2023-04-19T09:11:44;99123.38;;;11.07;83.12
16544;BME280;8384;47.996;7.786;2023-04-19T09:14:10;99100.59;;;11.01;81.89
16544;BME280;8384;47.996;7.786;2023-04-19T09:16:36;99082.72;;;10.93;82.51
16544;BME280;8384;47.996;7.786;2023-04-19T09:19:02;99109.41;;;10.81;84.68
16544;BME280;8384;47.996;7.786;2023-04-19T09:21:28;99045.47;;;10.43;86.04
16544;BME280;8384;47.996;7.786;2023-04-19T09:23:54;99090.56;;;10.85;84.68
16544;BME280;8384;47.996;7.786;2023-04-19T09:26:20;99061.97;;;10.70;84.02
16544;BME280;8384;47.996;7.786;2023-04-19T09:31:21;99074.59;;;10.76;84.37
16544;BME280;8384;47.996;7.786;2023-04-19T09:33:46;99095.81;;;11.14;83.77
16544;BME280;8384;47.996;7.786;2023-04-19T09:38:53;99095.59;;;11.43;82.11
16544;BME280;8384;47.996;7.786;2023-04-19T09:41:18;99062.38;;;11.34;82.46
16544;BME280;8384;47.996;7.786;2023-04-19T09:43:44;99066.22;;;11.33;81.98
16544;BME280;8384;47.996;7.786;2023-04-19T09:46:29;99067.75;;;11.51;80.75
16544;BME280;8384;47.996;7.786;2023-04-19T09:51:45;99090.97;;;11.76;78.56
16544;BME280;8384;47.996;7.786;2023-04-19T09:54:12;99045.69;;;11.63;78.62
16544;BME280;8384;47.996;7.786;2023-04-19T09:56:38;99033.25;;;11.50;77.94
16544;BME280;8384;47.996;7.786;2023-04-19T09:59:05;99080.34;;;11.84;78.08
16544;BME280;8384;47.996;7.786;2023-04-19T10:01:53;99073.47;;;11.77;77.50
16544;BME280;8384;47.996;7.786;2023-04-19T10:04:19;99013.03;;;11.23;75.72
16544;BME280;8384;47.996;7.786;2023-04-19T10:06:51;99048.09;;;11.59;74.99
16544;BME280;8384;47.996;7.786;2023-04-19T10:09:18;99059.59;;;11.94;75.24
16544;BME280;8384;47.996;7.786;2023-04-19T10:11:51;99072.69;;;12.19;76.27
16544;BME280;8384;47.996;7.786;2023-04-19T10:14:21;99069.16;;;12.24;73.47
16544;BME280;8384;47.996;7.786;2023-04-19T10:16:49;99006.22;;;11.96;72.97
16544;BME280;8384;47.996;7.786;2023-04-19T10:19:15;99018.09;;;12.07;74.37
16544;BME280;8384;47.996;7.786;2023-04-19T10:21:42;98995.94;;;12.14;72.56
16544;BME280;8384;47.996;7.786;2023-04-19T10:24:08;99055.69;;;12.65;71.26
16544;BME280;8384;47.996;7.786;2023-04-19T10:27:11;99063.94;;;12.70;70.88
16544;BME280;8384;47.996;7.786;2023-04-19T10:32:22;99052.72;;;12.77;69.66
16544;BME280;8384;47.996;7.786;2023-04-19T10:34:50;98994.13;;;12.35;68.49
16544;BME280;8384;47.996;7.786;2023-04-19T10:37:16;99009.75;;;12.40;70.43
16544;BME280;8384;47.996;7.786;2023-04-19T10:39:43;99044.47;;;12.72;69.41
16544;BME280;8384;47.996;7.786;2023-04-19T10:42:08;99054.38;;;12.88;67.24
16544;BME280;8384;47.996;7.786;2023-04-19T10:44:34;98998.88;;;12.55;65.10
16544;BME280;8384;47.996;7.786;2023-04-19T10:46:59;99043.44;;;12.94;64.69
16544;BME280;8384;47.996;7.786;2023-04-19T10:49:27;98989.00;;;12.54;63.44
16544;BME280;8384;47.996;7.786;2023-04-19T10:51:52;99040.97;;;12.92;62.50
16544;BME280;8384;47.996;7.786;2023-04-19T10:54:37;99030.00;;;12.92;61.33
16544;BME280;8384;47.996;7.786;2023-04-19T10:57:03;99039.06;;;12.98;59.95
16544;BME280;8384;47.996;7.786;2023-04-19T10:59:36;99034.38;;;12.93;60.81
16544;BME280;8384;47.996;7.786;2023-04-19T11:02:04;99011.63;;;12.98;60.79
16544;BME280;8384;47.996;7.786;2023-04-19T11:07:17;98991.03;;;13.05;60.23
16544;BME280;8384;47.996;7.786;2023-04-19T11:09:44;99019.06;;;13.18;61.50
16544;BME280;8384;47.996;7.786;2023-04-19T11:12:11;98960.00;;;12.89;60.79
16544;BME280;8384;47.996;7.786;2023-04-19T11:14:44;98927.59;;;12.55;63.26
16544;BME280;8384;47.996;7.786;2023-04-19T11:17:23;98964.59;;;12.58;67.13
16544;BME280;8384;47.996;7.786;2023-04-19T11:19:55;98955.47;;;12.37;70.55
16544;BME280;8384;47.996;7.786;2023-04-19T11:22:28;98981.25;;;12.41;71.82
16544;BME280;8384;47.996;7.786;2023-04-19T11:24:55;98982.91;;;12.42;72.37
16544;BME280;8384;47.996;7.786;2023-04-19T11:27:20;99002.34;;;12.35;73.95
16544;BME280;8384;47.996;7.786;2023-04-19T11:29:45;98990.91;;;12.54;73.62
16544;BME280;8384;47.996;7.786;2023-04-19T11:32:11;99000.56;;;12.72;73.65
16544;BME280;8384;47.996;7.786;2023-04-19T11:34:37;98990.66;;;12.60;72.73
16544;BME280;8384;47.996;7.786;2023-04-19T11:37:03;99001.09;;;12.69;72.45
16544;BME280;8384;47.996;7.786;2023-04-19T11:39:28;98961.25;;;12.40;73.71
16544;BME280;8384;47.996;7.786;2023-04-19T11:41:54;98995.38;;;12.81;71.85
16544;BME280;8384;47.996;7.786;2023-04-19T11:44:19;98988.50;;;12.68;73.94
16544;BME280;8384;47.996;7.786;2023-04-19T11:47:02;98959.88;;;12.43;74.65
16544;BME280;8384;47.996;7.786;2023-04-19T11:49:32;98951.06;;;12.25;75.15
16544;BME280;8384;47.996;7.786;2023-04-19T11:51:59;98988.19;;;12.59;74.26
16544;BME280;8384;47.996;7.786;2023-04-19T11:54:25;98990.19;;;12.89;73.48
16544;BME280;8384;47.996;7.786;2023-04-19T11:57:06;98935.84;;;12.71;72.06
16544;BME280;8384;47.996;7.786;2023-04-19T11:59:34;98947.69;;;12.92;71.34
16544;BME280;8384;47.996;7.786;2023-04-19T12:02:10;98980.09;;;13.26;70.75
16544;BME280;8384;47.996;7.786;2023-04-19T12:04:37;98974.34;;;13.28;71.85
16544;BME280;8384;47.996;7.786;2023-04-19T12:07:04;98949.34;;;13.09;70.50
16544;BME280;8384;47.996;7.786;2023-04-19T12:09:32;98926.28;;;13.10;68.87
16544;BME280;8384;47.996;7.786;2023-04-19T12:11:57;98927.09;;;12.95;70.16
16544;BME280;8384;47.996;7.786;2023-04-19T12:14:23;98939.19;;;13.04;70.92
16544;BME280;8384;47.996;7.786;2023-04-19T12:17:07;98965.31;;;13.48;69.85
16544;BME280;8384;47.996;7.786;2023-04-19T12:19:45;98947.44;;;13.40;68.75
16544;BME280;8384;47.996;7.786;2023-04-19T12:24:38;98941.94;;;13.04;70.45
16544;BME280;8384;47.996;7.786;2023-04-19T12:27:05;98964.19;;;13.39;68.71
16544;BME280;8384;47.996;7.786;2023-04-19T12:29:30;98955.41;;;13.52;67.35
16544;BME280;8384;47.996;7.786;2023-04-19T12:31:56;98921.91;;;13.29;66.51
16544;BME280;8384;47.996;7.786;2023-04-19T12:34:21;98958.41;;;13.66;67.83
16544;BME280;8384;47.996;7.786;2023-04-19T12:36:46;98930.44;;;13.59;64.92
16544;BME280;8384;47.996;7.786;2023-04-19T12:39:13;98936.97;;;13.84;64.19
16544;BME280;8384;47.996;7.786;2023-04-19T12:41:38;98942.47;;;13.78;65.51
16544;BME280;8384;47.996;7.786;2023-04-19T12:44:04;98946.59;;;13.86;66.01
16544;BME280;8384;47.996;7.786;2023-04-19T12:46:29;98950.06;;;14.18;61.96
16544;BME280;8384;47.996;7.786;2023-04-19T12:48:57;98894.44;;;13.60;62.41
16544;BME280;8384;47.996;7.786;2023-04-19T12:51:23;98826.13;;;12.92;62.22
16544;BME280;8384;47.996;7.786;2023-04-19T12:53:48;98945.78;;;13.65;63.50
16544;BME280;8384;47.996;7.786;2023-04-19T12:56:14;98926.88;;;13.43;62.51
16544;BME280;8384;47.996;7.786;2023-04-19T12:58:40;98904.59;;;13.18;63.01
16544;BME280;8384;47.996;7.786;2023-04-19T13:01:06;98892.28;;;13.21;62.52
16544;BME280;8384;47.996;7.786;2023-04-19T13:03:31;98912.81;;;13.65;60.33
16544;BME280;8384;47.996;7.786;2023-04-19T13:06:00;98892.78;;;13.54;59.99
16544;BME280;8384;47.996;7.786;2023-04-19T13:08:25;98888.34;;;13.79;59.46
16544;BME280;8384;47.996;7.786;2023-04-19T13:10:50;98870.97;;;13.94;58.52
16544;BME280;8384;47.996;7.786;2023-04-19T13:13:16;98916.56;;;14.10;58.49
16544;BME280;8384;47.996;7.786;2023-04-19T13:15:41;98910.31;;;13.89;59.74
16544;BME280;8384;47.996;7.786;2023-04-19T13:18:06;98887.50;;;13.89;59.38
16544;BME280;8384;47.996;7.786;2023-04-19T13:20:32;98825.84;;;13.45;60.39
16544;BME280;8384;47.996;7.786;2023-04-19T13:22:57;98914.47;;;13.66;62.83
16544;BME280;8384;47.996;7.786;2023-04-19T13:25:22;98907.38;;;13.44;63.58